sensor_id;sensor_type;location;lat;lon;timestamp;pressure;altitude;pressure_sealevel;temperature;humidity
77041;BME280;65974;42.664;23.264;2023-06-14T00:00:19;94137.81;;;16.18;90.24
77041;BME280;65974;42.664;23.264;2023-06-14T00:02:45;94136.75;;;16.16;89.53
77041;BME280;65974;42.664;23.264;2023-06-14T00:05:10;94133.63;;;16.17;89.40
77041;BME280;65974;42.664;23.264;2023-06-14T00:07:39;94130.16;;;16.17;89.40
77041;BME280;65974;42.664;23.264;2023-06-14T00:10:08;94121.78;;;16.15;89.58
77041;BME280;65974;42.664;23.264;2023-06-14T00:12:33;94116.06;;;16.13;89.36
77041;BME280;65974;42.664;23.264;2023-06-14T00:14:59;94126.72;;;16.16;89.97
77041;BME280;65974;42.664;23.264;2023-06-14T00:17:27;94120.19;;;16.17;89.98
77041;BME280;65974;42.664;23.264;2023-06-14T00:19:56;94124.03;;;16.16;89.44
77041;BME280;65974;42.664;23.264;2023-06-14T00:22:22;94110.19;;;16.18;89.35
77041;BME280;65974;42.664;23.264;2023-06-14T00:24:50;94121.00;;;16.14;89.58
77041;BME280;65974;42.664;23.264;2023-06-14T00:27:15;94116.50;;;16.11;89.29
77041;BME280;65974;42.664;23.264;2023-06-14T00:29:41;94119.94;;;16.12;89.22
77041;BME280;65974;42.664;23.264;2023-06-14T00:32:07;94120.78;;;16.09;88.93
77041;BME280;65974;42.664;23.264;2023-06-14T00:34:32;94110.13;;;16.05;88.85
77041;BME280;65974;42.664;23.264;2023-06-14T00:36:58;94117.00;;;16.06;88.92
77041;BME280;65974;42.664;23.264;2023-06-14T00:39:24;94119.69;;;16.06;89.35
77041;BME280;65974;42.664;23.264;2023-06-14T00:41:49;94116.84;;;16.13;89.17
77041;BME280;65974;42.664;23.264;2023-06-14T00:44:16;94104.41;;;16.19;88.56
77041;BME280;65974;42.664;23.264;2023-06-14T00:46:42;94103.56;;;16.22;89.01
77041;BME280;65974;42.664;23.264;2023-06-14T00:49:08;94108.09;;;16.25;89.16
77041;BME280;65974;42.664;23.264;2023-06-14T00:51:34;94101.94;;;16.25;89.08
77041;BME280;65974;42.664;23.264;2023-06-14T00:53:59;94107.75;;;16.23;89.34
77041;BME280;65974;42.664;23.264;2023-06-14T00:56:26;94104.72;;;16.21;89.37
77041;BME280;65974;42.664;23.264;2023-06-14T00:58:53;94099.34;;;16.21;89.84
77041;BME280;65974;42.664;23.264;2023-06-14T01:01:18;94103.31;;;16.17;90.34
77041;BME280;65974;42.664;23.264;2023-06-14T01:03:43;94106.00;;;16.17;90.26
77041;BME280;65974;42.664;23.264;2023-06-14T01:06:40;94100.56;;;16.20;90.28
77041;BME280;65974;42.664;23.264;2023-06-14T01:09:33;94098.25;;;16.19;90.14
77041;BME280;65974;42.664;23.264;2023-06-14T01:12:14;94099.44;;;16.18;89.97
77041;BME280;65974;42.664;23.264;2023-06-14T01:14:41;94102.47;;;16.20;90.07
77041;BME280;65974;42.664;23.264;2023-06-14T01:17:07;94103.25;;;16.20;89.82
77041;BME280;65974;42.664;23.264;2023-06-14T01:19:41;94099.84;;;16.16;89.96
77041;BME280;65974;42.664;23.264;2023-06-14T01:22:08;94096.84;;;16.14;90.19
77041;BME280;65974;42.664;23.264;2023-06-14T01:24:34;94096.50;;;16.12;90.61
77041;BME280;65974;42.664;23.264;2023-06-14T01:27:00;94095.34;;;16.13;90.66
77041;BME280;65974;42.664;23.264;2023-06-14T01:29:28;94093.41;;;16.14;90.38
77041;BME280;65974;42.664;23.264;2023-06-14T01:31:59;94086.09;;;16.14;90.32
77041;BME280;65974;42.664;23.264;2023-06-14T01:34:25;94095.25;;;16.17;90.45
77041;BME280;65974;42.664;23.264;2023-06-14T01:36:52;94091.41;;;16.18;90.64
77041;BME280;65974;42.664;23.264;2023-06-14T01:39:20;94094.31;;;16.23;90.81
77041;BME280;65974;42.664;23.264;2023-06-14T01:41:47;94098.88;;;16.26;90.61
77041;BME280;65974;42.664;23.264;2023-06-14T01:44:15;94096.91;;;16.27;90.67
77041;BME280;65974;42.664;23.264;2023-06-14T01:46:42;94100.03;;;16.25;90.61
77041;BME280;65974;42.664;23.264;2023-06-14T01:49:08;94096.06;;;16.30;90.14
77041;BME280;65974;42.664;23.264;2023-06-14T01:51:34;94103.38;;;16.29;89.96
77041;BME280;65974;42.664;23.264;2023-06-14T01:54:00;94099.53;;;16.30;90.18
77041;BME280;65974;42.664;23.264;2023-06-14T01:56:26;94105.66;;;16.31;89.97
77041;BME280;65974;42.664;23.264;2023-06-14T01:58:52;94112.97;;;16.30;89.60
77041;BME280;65974;42.664;23.264;2023-06-14T02:01:19;94111.03;;;16.31;89.74
77041;BME280;65974;42.664;23.264;2023-06-14T02:03:47;94108.34;;;16.31;89.42
77041;BME280;65974;42.664;23.264;2023-06-14T02:06:13;94117.91;;;16.32;88.89
77041;BME280;65974;42.664;23.264;2023-06-14T02:08:38;94114.13;;;16.29;88.82
77041;BME280;65974;42.664;23.264;2023-06-14T02:11:05;94114.88;;;16.30;89.06
77041;BME280;65974;42.664;23.264;2023-06-14T02:13:30;94122.72;;;16.24;88.62
77041;BME280;65974;42.664;23.264;2023-06-14T02:15:56;94124.63;;;16.24;88.53
77041;BME280;65974;42.664;23.264;2023-06-14T02:18:23;94131.69;;;16.18;88.49
77041;BME280;65974;42.664;23.264;2023-06-14T02:20:48;94132.84;;;16.17;88.69
77041;BME280;65974;42.664;23.264;2023-06-14T02:23:14;94136.81;;;16.12;88.99
77041;BME280;65974;42.664;23.264;2023-06-14T02:25:40;94141.78;;;16.14;88.76
77041;BME280;65974;42.664;23.264;2023-06-14T02:28:05;94127.16;;;16.15;89.00
77041;BME280;65974;42.664;23.264;2023-06-14T02:30:31;94131.44;;;16.12;88.93
77041;BME280;65974;42.664;23.264;2023-06-14T02:32:57;94133.78;;;16.10;89.04
77041;BME280;65974;42.664;23.264;2023-06-14T02:35:23;94141.50;;;16.08;89.26
77041;BME280;65974;42.664;23.264;2023-06-14T02:37:51;94134.34;;;16.02;88.59
77041;BME280;65974;42.664;23.264;2023-06-14T02:40:18;94132.94;;;15.97;88.61
77041;BME280;65974;42.664;23.264;2023-06-14T02:42:43;94133.34;;;15.96;88.87
77041;BME280;65974;42.664;23.264;2023-06-14T02:45:09;94127.56;;;15.97;88.82
77041;BME280;65974;42.664;23.264;2023-06-14T02:47:35;94130.25;;;15.97;88.57
77041;BME280;65974;42.664;23.264;2023-06-14T02:50:01;94129.84;;;15.99;88.84
77041;BME280;65974;42.664;23.264;2023-06-14T02:52:28;94127.16;;;15.99;88.63
77041;BME280;65974;42.664;23.264;2023-06-14T02:54:53;94135.94;;;15.99;88.84
77041;BME280;65974;42.664;23.264;2023-06-14T02:57:20;94130.19;;;16.01;88.86
77041;BME280;65974;42.664;23.264;2023-06-14T02:59:45;94130.94;;;16.01;88.96
77041;BME280;65974;42.664;23.264;2023-06-14T03:02:11;94130.19;;;16.01;88.45
77041;BME280;65974;42.664;23.264;2023-06-14T03:04:36;94130.94;;;16.01;88.42
77041;BME280;65974;42.664;23.264;2023-06-14T03:07:05;94132.78;;;16.04;88.12
77041;BME280;65974;42.664;23.264;2023-06-14T03:09:37;94134.63;;;16.07;88.18
77041;BME280;65974;42.664;23.264;2023-06-14T03:12:04;94139.34;;;16.03;88.35
77041;BME280;65974;42.664;23.264;2023-06-14T03:14:30;94141.69;;;16.01;88.55
77041;BME280;65974;42.664;23.264;2023-06-14T03:16:56;94147.41;;;16.03;88.44
77041;BME280;65974;42.664;23.264;2023-06-14T03:19:25;94153.94;;;16.02;88.50
77041;BME280;65974;42.664;23.264;2023-06-14T03:21:51;94145.53;;;16.00;88.24
77041;BME280;65974;42.664;23.264;2023-06-14T03:24:17;94156.28;;;16.00;88.52
77041;BME280;65974;42.664;23.264;2023-06-14T03:26:43;94153.16;;;16.02;88.48
77041;BME280;65974;42.664;23.264;2023-06-14T03:29:08;94151.34;;;15.99;88.67
77041;BME280;65974;42.664;23.264;2023-06-14T03:32:00;94156.69;;;15.99;88.77
77041;BME280;65974;42.664;23.264;2023-06-14T03:34:26;94154.75;;;15.99;88.88
77041;BME280;65974;42.664;23.264;2023-06-14T03:36:52;94158.53;;;16.02;88.58
77041;BME280;65974;42.664;23.264;2023-06-14T03:39:18;94159.44;;;15.95;88.64
77041;BME280;65974;42.664;23.264;2023-06-14T03:41:43;94163.22;;;15.98;88.26
77041;BME280;65974;42.664;23.264;2023-06-14T03:44:09;94160.63;;;15.94;88.63
77041;BME280;65974;42.664;23.264;2023-06-14T03:46:34;94161.06;;;15.93;88.44
77041;BME280;65974;42.664;23.264;2023-06-14T03:48:59;94153.41;;;15.91;88.88
77041;BME280;65974;42.664;23.264;2023-06-14T03:51:25;94153.69;;;15.97;88.74
77041;BME280;65974;42.664;23.264;2023-06-14T03:53:51;94154.69;;;16.03;88.31
77041;BME280;65974;42.664;23.264;2023-06-14T03:56:16;94156.13;;;16.07;87.93
77041;BME280;65974;42.664;23.264;2023-06-14T03:58:42;94166.44;;;16.09;88.12
77041;BME280;65974;42.664;23.264;2023-06-14T04:01:07;94171.34;;;16.14;87.86
77041;BME280;65974;42.664;23.264;2023-06-14T04:03:33;94167.03;;;16.16;87.67
77041;BME280;65974;42.664;23.264;2023-06-14T04:05:58;94171.25;;;16.17;87.86
77041;BME280;65974;42.664;23.264;2023-06-14T04:08:25;94164.78;;;16.15;87.43
77041;BME280;65974;42.664;23.264;2023-06-14T04:10:50;94164.28;;;16.20;87.32
77041;BME280;65974;42.664;23.264;2023-06-14T04:13:16;94154.09;;;16.27;87.19
77041;BME280;65974;42.664;23.264;2023-06-14T04:15:42;94164.53;;;16.25;86.93
77041;BME280;65974;42.664;23.264;2023-06-14T04:18:09;94163.41;;;16.23;86.67
77041;BME280;65974;42.664;23.264;2023-06-14T04:20:34;94168.88;;;16.19;86.87
77041;BME280;65974;42.664;23.264;2023-06-14T04:23:12;94162.25;;;16.24;87.22
77041;BME280;65974;42.664;23.264;2023-06-14T04:25:38;94160.66;;;16.26;87.26
77041;BME280;65974;42.664;23.264;2023-06-14T04:28:03;94162.34;;;16.37;86.81
77041;BME280;65974;42.664;23.264;2023-06-14T04:30:29;94162.91;;;16.44;86.15
77041;BME280;65974;42.664;23.264;2023-06-14T04:32:56;94166.97;;;16.36;86.07
77041;BME280;65974;42.664;23.264;2023-06-14T04:35:22;94164.38;;;16.33;85.16
77041;BME280;65974;42.664;23.264;2023-06-14T04:37:49;94170.50;;;16.33;85.45
77041;BME280;65974;42.664;23.264;2023-06-14T04:40:15;94166.28;;;16.32;85.51
77041;BME280;65974;42.664;23.264;2023-06-14T04:42:40;94162.84;;;16.31;85.49
77041;BME280;65974;42.664;23.264;2023-06-14T04:45:10;94163.16;;;16.33;85.96
77041;BME280;65974;42.664;23.264;2023-06-14T04:47:36;94159.16;;;16.42;86.05
77041;BME280;65974;42.664;23.264;2023-06-14T04:50:03;94166.38;;;16.45;86.23
77041;BME280;65974;42.664;23.264;2023-06-14T04:52:28;94167.47;;;16.47;86.14
77041;BME280;65974;42.664;23.264;2023-06-14T04:54:55;94165.38;;;16.55;86.24
77041;BME280;65974;42.664;23.264;2023-06-14T04:57:21;94165.75;;;16.57;85.36
77041;BME280;65974;42.664;23.264;2023-06-14T04:59:48;94169.16;;;16.57;85.46
77041;BME280;65974;42.664;23.264;2023-06-14T05:02:13;94184.19;;;16.55;85.52
77041;BME280;65974;42.664;23.264;2023-06-14T05:04:39;94181.00;;;16.60;85.48
77041;BME280;65974;42.664;23.264;2023-06-14T05:07:08;94176.97;;;16.68;85.35
77041;BME280;65974;42.664;23.264;2023-06-14T05:09:35;94179.16;;;16.73;85.01
77041;BME280;65974;42.664;23.264;2023-06-14T05:12:01;94179.50;;;16.75;84.96
77041;BME280;65974;42.664;23.264;2023-06-14T05:14:26;94188.22;;;16.79;84.71
77041;BME280;65974;42.664;23.264;2023-06-14T05:16:52;94183.59;;;16.79;84.39
77041;BME280;65974;42.664;23.264;2023-06-14T05:19:19;94190.81;;;16.82;84.24
77041;BME280;65974;42.664;23.264;2023-06-14T05:21:46;94193.50;;;16.82;84.00
77041;BME280;65974;42.664;23.264;2023-06-14T05:24:12;94196.13;;;16.86;83.80
77041;BME280;65974;42.664;23.264;2023-06-14T05:26:38;94197.94;;;16.89;84.27
77041;BME280;65974;42.664;23.264;2023-06-14T05:29:03;94194.09;;;16.90;84.03
77041;BME280;65974;42.664;23.264;2023-06-14T05:31:28;94205.69;;;16.87;83.67
77041;BME280;65974;42.664;23.264;2023-06-14T05:33:54;94207.53;;;16.90;83.70
77041;BME280;65974;42.664;23.264;2023-06-14T05:36:20;94198.72;;;16.89;83.53
77041;BME280;65974;42.664;23.264;2023-06-14T05:38:49;94203.16;;;16.96;83.78
77041;BME280;65974;42.664;23.264;2023-06-14T05:41:16;94214.16;;;17.01;83.12
77041;BME280;65974;42.664;23.264;2023-06-14T05:43:41;94214.91;;;17.02;83.00
77041;BME280;65974;42.664;23.264;2023-06-14T05:46:07;94212.88;;;17.06;83.16
77041;BME280;65974;42.664;23.264;2023-06-14T05:48:32;94208.84;;;17.14;83.42
77041;BME280;65974;42.664;23.264;2023-06-14T05:50:58;94213.28;;;17.21;82.97
77041;BME280;65974;42.664;23.264;2023-06-14T05:53:24;94212.34;;;17.27;82.96
77041;BME280;65974;42.664;23.264;2023-06-14T05:55:50;94215.34;;;17.29;83.26
77041;BME280;65974;42.664;23.264;2023-06-14T05:58:18;94215.94;;;17.37;82.87
77041;BME280;65974;42.664;23.264;2023-06-14T06:00:45;94213.47;;;17.42;82.30
77041;BME280;65974;42.664;23.264;2023-06-14T06:03:11;94218.97;;;17.39;81.83
77041;BME280;65974;42.664;23.264;2023-06-14T06:05:38;94228.97;;;17.38;81.64
77041;BME280;65974;42.664;23.264;2023-06-14T06:08:04;94225.88;;;17.40;82.17
77041;BME280;65974;42.664;23.264;2023-06-14T06:10:30;94225.09;;;17.39;82.37
77041;BME280;65974;42.664;23.264;2023-06-14T06:12:55;94227.97;;;17.32;82.31
77041;BME280;65974;42.664;23.264;2023-06-14T06:15:21;94223.34;;;17.33;82.27
77041;BME280;65974;42.664;23.264;2023-06-14T06:17:46;94229.25;;;17.28;82.81
77041;BME280;65974;42.664;23.264;2023-06-14T06:20:12;94231.72;;;17.22;82.89
77041;BME280;65974;42.664;23.264;2023-06-14T06:22:38;94237.09;;;17.22;82.37
77041;BME280;65974;42.664;23.264;2023-06-14T06:25:04;94235.34;;;17.16;82.62
77041;BME280;65974;42.664;23.264;2023-06-14T06:27:31;94234.13;;;17.17;83.21
77041;BME280;65974;42.664;23.264;2023-06-14T06:29:57;94233.06;;;17.14;83.08
77041;BME280;65974;42.664;23.264;2023-06-14T06:32:22;94239.53;;;17.17;83.18
77041;BME280;65974;42.664;23.264;2023-06-14T06:34:48;94238.13;;;17.12;83.10
77041;BME280;65974;42.664;23.264;2023-06-14T06:37:13;94235.78;;;17.14;82.36
77041;BME280;65974;42.664;23.264;2023-06-14T06:39:40;94238.69;;;17.20;82.61
77041;BME280;65974;42.664;23.264;2023-06-14T06:42:05;94235.50;;;17.25;83.17
77041;BME280;65974;42.664;23.264;2023-06-14T06:44:32;94227.66;;;17.30;82.87
77041;BME280;65974;42.664;23.264;2023-06-14T06:46:58;94232.19;;;17.33;82.57
77041;BME280;65974;42.664;23.264;2023-06-14T06:49:23;94229.16;;;17.31;82.65
77041;BME280;65974;42.664;23.264;2023-06-14T06:52:02;94236.38;;;17.34;82.32
77041;BME280;65974;42.664;23.264;2023-06-14T06:54:28;94243.84;;;17.43;82.24
77041;BME280;65974;42.664;23.264;2023-06-14T06:56:53;94241.81;;;17.47;82.89
77041;BME280;65974;42.664;23.264;2023-06-14T06:59:19;94239.44;;;17.49;82.32
77041;BME280;65974;42.664;23.264;2023-06-14T07:01:45;94237.03;;;17.54;81.91
77041;BME280;65974;42.664;23.264;2023-06-14T07:04:10;94238.34;;;17.62;81.99
77041;BME280;65974;42.664;23.264;2023-06-14T07:06:36;94237.63;;;17.74;81.11
77041;BME280;65974;42.664;23.264;2023-06-14T07:09:01;94237.00;;;17.83;81.32
77041;BME280;65974;42.664;23.264;2023-06-14T07:11:27;94249.75;;;17.95;81.25
77041;BME280;65974;42.664;23.264;2023-06-14T07:13:52;94240.94;;;18.07;81.14
77041;BME280;65974;42.664;23.264;2023-06-14T07:16:18;94237.28;;;18.14;80.64
77041;BME280;65974;42.664;23.264;2023-06-14T07:18:43;94232.09;;;18.19;80.31
77041;BME280;65974;42.664;23.264;2023-06-14T07:21:09;94236.50;;;18.26;78.86
77041;BME280;65974;42.664;23.264;2023-06-14T07:23:34;94238.69;;;18.31;78.64
77041;BME280;65974;42.664;23.264;2023-06-14T07:26:00;94229.19;;;18.39;78.92
77041;BME280;65974;42.664;23.264;2023-06-14T07:28:26;94229.94;;;18.39;78.73
77041;BME280;65974;42.664;23.264;2023-06-14T07:30:51;94233.13;;;18.50;77.50
77041;BME280;65974;42.664;23.264;2023-06-14T07:33:17;94239.16;;;18.54;77.08
77041;BME280;65974;42.664;23.264;2023-06-14T07:35:42;94231.38;;;18.56;77.68
77041;BME280;65974;42.664;23.264;2023-06-14T07:38:08;94228.56;;;18.60;77.42
77041;BME280;65974;42.664;23.264;2023-06-14T07:40:33;94236.84;;;18.66;75.78
77041;BME280;65974;42.664;23.264;2023-06-14T07:42:59;94231.47;;;18.66;75.96
77041;BME280;65974;42.664;23.264;2023-06-14T07:45:24;94233.19;;;18.59;75.83
77041;BME280;65974;42.664;23.264;2023-06-14T07:47:50;94233.50;;;18.62;76.27
77041;BME280;65974;42.664;23.264;2023-06-14T07:50:16;94235.47;;;18.61;76.14
77041;BME280;65974;42.664;23.264;2023-06-14T07:52:42;94246.03;;;18.68;76.51
77041;BME280;65974;42.664;23.264;2023-06-14T07:55:07;94244.41;;;18.83;76.13
77041;BME280;65974;42.664;23.264;2023-06-14T07:57:33;94245.25;;;18.93;74.96
77041;BME280;65974;42.664;23.264;2023-06-14T07:59:58;94240.69;;;19.02;74.81
77041;BME280;65974;42.664;23.264;2023-06-14T08:02:24;94241.31;;;19.06;75.31
77041;BME280;65974;42.664;23.264;2023-06-14T08:04:49;94249.19;;;19.13;74.86
77041;BME280;65974;42.664;23.264;2023-06-14T08:07:15;94256.94;;;19.24;73.55
77041;BME280;65974;42.664;23.264;2023-06-14T08:09:40;94254.91;;;19.15;74.57
77041;BME280;65974;42.664;23.264;2023-06-14T08:12:07;94260.41;;;19.24;74.89
77041;BME280;65974;42.664;23.264;2023-06-14T08:14:35;94263.75;;;19.28;73.64
77041;BME280;65974;42.664;23.264;2023-06-14T08:17:01;94271.72;;;19.32;73.44
77041;BME280;65974;42.664;23.264;2023-06-14T08:19:28;94272.59;;;19.42;71.76
77041;BME280;65974;42.664;23.264;2023-06-14T08:21:53;94264.59;;;19.38;72.33
77041;BME280;65974;42.664;23.264;2023-06-14T08:24:23;94265.47;;;19.35;73.37
77041;BME280;65974;42.664;23.264;2023-06-14T08:26:54;94271.38;;;19.43;73.33
77041;BME280;65974;42.664;23.264;2023-06-14T08:29:20;94260.97;;;19.54;73.97
77041;BME280;65974;42.664;23.264;2023-06-14T08:31:46;94271.34;;;19.55;72.96
77041;BME280;65974;42.664;23.264;2023-06-14T08:34:12;94273.44;;;19.73;73.25
77041;BME280;65974;42.664;23.264;2023-06-14T08:36:37;94267.34;;;19.81;72.50
77041;BME280;65974;42.664;23.264;2023-06-14T08:39:03;94268.47;;;19.93;70.24
77041;BME280;65974;42.664;23.264;2023-06-14T08:41:29;94270.44;;;19.92;69.87
77041;BME280;65974;42.664;23.264;2023-06-14T08:43:55;94265.09;;;20.01;70.42
77041;BME280;65974;42.664;23.264;2023-06-14T08:46:25;94261.38;;;20.08;71.22
77041;BME280;65974;42.664;23.264;2023-06-14T08:48:55;94261.19;;;20.24;68.69
77041;BME280;65974;42.664;23.264;2023-06-14T08:51:22;94253.69;;;20.28;68.09
77041;BME280;65974;42.664;23.264;2023-06-14T08:53:55;94253.50;;;20.23;68.48
77041;BME280;65974;42.664;23.264;2023-06-14T08:56:28;94257.06;;;20.20;69.72
77041;BME280;65974;42.664;23.264;2023-06-14T08:58:55;94257.91;;;20.29;70.59
77041;BME280;65974;42.664;23.264;2023-06-14T09:01:23;94247.78;;;20.51;68.98
77041;BME280;65974;42.664;23.264;2023-06-14T09:03:49;94245.69;;;20.55;69.78
77041;BME280;65974;42.664;23.264;2023-06-14T09:06:16;94249.78;;;20.69;67.35
77041;BME280;65974;42.664;23.264;2023-06-14T09:08:43;94251.13;;;20.64;67.42
77041;BME280;65974;42.664;23.264;2023-06-14T09:11:12;94246.94;;;20.72;68.15
77041;BME280;65974;42.664;23.264;2023-06-14T09:13:38;94246.22;;;20.81;67.57
77041;BME280;65974;42.664;23.264;2023-06-14T09:16:05;94234.97;;;20.92;66.09
77041;BME280;65974;42.664;23.264;2023-06-14T09:18:41;94230.75;;;20.91;67.34
77041;BME280;65974;42.664;23.264;2023-06-14T09:23:46;94231.13;;;21.11;66.83
77041;BME280;65974;42.664;23.264;2023-06-14T09:26:15;94237.78;;;21.19;67.03
77041;BME280;65974;42.664;23.264;2023-06-14T09:28:42;94235.22;;;21.24;66.82
77041;BME280;65974;42.664;23.264;2023-06-14T09:31:13;94229.66;;;21.19;67.74
77041;BME280;65974;42.664;23.264;2023-06-14T09:33:41;94231.44;;;21.22;67.20
77041;BME280;65974;42.664;23.264;2023-06-14T09:36:12;94238.66;;;21.16;67.39
77041;BME280;65974;42.664;23.264;2023-06-14T09:38:41;94231.75;;;21.24;66.69
77041;BME280;65974;42.664;23.264;2023-06-14T09:41:06;94238.94;;;21.09;66.92
77041;BME280;65974;42.664;23.264;2023-06-14T09:43:33;94231.44;;;21.04;66.33
77041;BME280;65974;42.664;23.264;2023-06-14T09:46:00;94235.03;;;21.10;67.27
77041;BME280;65974;42.664;23.264;2023-06-14T09:48:26;94233.69;;;21.05;68.11
77041;BME280;65974;42.664;23.264;2023-06-14T09:50:55;94233.69;;;21.05;66.48
77041;BME280;65974;42.664;23.264;2023-06-14T09:53:21;94220.59;;;21.22;65.66
77041;BME280;65974;42.664;23.264;2023-06-14T09:55:52;94217.47;;;21.41;64.54
77041;BME280;65974;42.664;23.264;2023-06-14T09:58:17;94223.31;;;21.49;64.25
77041;BME280;65974;42.664;23.264;2023-06-14T10:00:45;94210.81;;;21.51;64.15
77041;BME280;65974;42.664;23.264;2023-06-14T10:03:14;94217.28;;;21.45;64.84
77041;BME280;65974;42.664;23.264;2023-06-14T10:05:43;94221.22;;;21.44;63.55
77041;BME280;65974;42.664;23.264;2023-06-14T10:08:13;94212.78;;;21.42;65.32
77041;BME280;65974;42.664;23.264;2023-06-14T10:10:42;94212.50;;;21.31;63.27
77041;BME280;65974;42.664;23.264;2023-06-14T10:13:08;94202.25;;;21.35;63.59
77041;BME280;65974;42.664;23.264;2023-06-14T10:16:00;94198.66;;;21.38;64.28
77041;BME280;65974;42.664;23.264;2023-06-14T10:18:40;94200.88;;;21.30;64.70
77041;BME280;65974;42.664;23.264;2023-06-14T10:23:42;94192.75;;;21.30;63.98
77041;BME280;65974;42.664;23.264;2023-06-14T10:26:18;94194.41;;;21.28;64.60
77041;BME280;65974;42.664;23.264;2023-06-14T10:28:56;94186.16;;;21.22;64.03
77041;BME280;65974;42.664;23.264;2023-06-14T10:31:22;94197.13;;;21.19;64.63
77041;BME280;65974;42.664;23.264;2023-06-14T10:41:26;94186.00;;;21.35;64.67
77041;BME280;65974;42.664;23.264;2023-06-14T10:44:04;94178.47;;;21.39;64.09
77041;BME280;65974;42.664;23.264;2023-06-14T10:46:35;94180.28;;;21.42;63.81
77041;BME280;65974;42.664;23.264;2023-06-14T10:49:01;94178.03;;;21.31;63.98
77041;BME280;65974;42.664;23.264;2023-06-14T10:51:29;94177.84;;;21.26;64.49
77041;BME280;65974;42.664;23.264;2023-06-14T10:53:56;94179.38;;;21.27;64.59
77041;BME280;65974;42.664;23.264;2023-06-14T10:56:27;94176.81;;;21.32;63.86
77041;BME280;65974;42.664;23.264;2023-06-14T10:58:54;94165.50;;;21.43;64.10
77041;BME280;65974;42.664;23.264;2023-06-14T11:01:36;94158.56;;;21.60;64.30
77041;BME280;65974;42.664;23.264;2023-06-14T11:04:10;94152.97;;;21.82;62.23
77041;BME280;65974;42.664;23.264;2023-06-14T11:06:50;94152.19;;;21.99;61.98
77041;BME280;65974;42.664;23.264;2023-06-14T11:10:00;94156.84;;;21.99;62.88
77041;BME280;65974;42.664;23.264;2023-06-14T11:12:32;94144.19;;;22.05;63.14
77041;BME280;65974;42.664;23.264;2023-06-14T11:14:59;94144.31;;;22.10;62.55
77041;BME280;65974;42.664;23.264;2023-06-14T11:17:25;94146.28;;;22.10;62.48
77041;BME280;65974;42.664;23.264;2023-06-14T11:20:07;94144.47;;;22.07;62.45
77041;BME280;65974;42.664;23.264;2023-06-14T11:22:39;94146.41;;;22.06;61.82
77041;BME280;65974;42.664;23.264;2023-06-14T11:25:08;94149.88;;;22.07;62.07
77041;BME280;65974;42.664;23.264;2023-06-14T11:27:34;94146.09;;;22.13;62.42
77041;BME280;65974;42.664;23.264;2023-06-14T11:29:59;94143.34;;;22.22;61.40
77041;BME280;65974;42.664;23.264;2023-06-14T11:32:24;94145.59;;;22.24;60.29
77041;BME280;65974;42.664;23.264;2023-06-14T11:34:50;94146.38;;;22.24;61.61
77041;BME280;65974;42.664;23.264;2023-06-14T11:37:16;94147.34;;;22.36;60.82
77041;BME280;65974;42.664;23.264;2023-06-14T11:39:45;94138.84;;;22.52;60.93
77041;BME280;65974;42.664;23.264;2023-06-14T11:42:16;94134.59;;;22.60;58.83
77041;BME280;65974;42.664;23.264;2023-06-14T11:44:42;94136.22;;;22.58;59.71
77041;BME280;65974;42.664;23.264;2023-06-14T11:47:07;94134.78;;;22.48;59.21
77041;BME280;65974;42.664;23.264;2023-06-14T11:49:36;94127.91;;;22.37;60.03
77041;BME280;65974;42.664;23.264;2023-06-14T11:52:02;94111.97;;;22.30;60.45
77041;BME280;65974;42.664;23.264;2023-06-14T11:54:27;94119.59;;;22.41;60.14
77041;BME280;65974;42.664;23.264;2023-06-14T11:56:53;94113.78;;;22.57;59.80
77041;BME280;65974;42.664;23.264;2023-06-14T11:59:20;94115.06;;;22.71;59.12
77041;BME280;65974;42.664;23.264;2023-06-14T12:01:47;94109.59;;;22.80;58.33
77041;BME280;65974;42.664;23.264;2023-06-14T12:04:13;94104.38;;;22.91;58.01
77041;BME280;65974;42.664;23.264;2023-06-14T12:06:39;94100.09;;;22.99;57.45
77041;BME280;65974;42.664;23.264;2023-06-14T12:09:05;94094.13;;;23.09;57.25
77041;BME280;65974;42.664;23.264;2023-06-14T12:11:43;94085.91;;;23.19;56.77
77041;BME280;65974;42.664;23.264;2023-06-14T12:14:09;94099.28;;;23.22;57.55
77041;BME280;65974;42.664;23.264;2023-06-14T12:16:36;94101.66;;;23.29;57.04
77041;BME280;65974;42.664;23.264;2023-06-14T12:19:16;94086.78;;;23.39;56.78
77041;BME280;65974;42.664;23.264;2023-06-14T12:21:42;94080.78;;;23.50;56.12
77041;BME280;65974;42.664;23.264;2023-06-14T12:24:08;94090.91;;;23.49;55.62
77041;BME280;65974;42.664;23.264;2023-06-14T12:26:40;94088.94;;;23.50;54.93
77041;BME280;65974;42.664;23.264;2023-06-14T12:29:06;94089.91;;;23.61;54.35
77041;BME280;65974;42.664;23.264;2023-06-14T12:31:32;94085.28;;;23.53;54.00
77041;BME280;65974;42.664;23.264;2023-06-14T12:33:58;94084.06;;;23.68;54.28
77041;BME280;65974;42.664;23.264;2023-06-14T12:36:24;94075.59;;;23.96;54.86
77041;BME280;65974;42.664;23.264;2023-06-14T12:38:51;94073.53;;;24.05;52.91
77041;BME280;65974;42.664;23.264;2023-06-14T12:41:18;94070.31;;;24.21;53.73
77041;BME280;65974;42.664;23.264;2023-06-14T12:43:46;94061.16;;;24.39;52.98
77041;BME280;65974;42.664;23.264;2023-06-14T12:46:11;94062.56;;;24.34;53.04
77041;BME280;65974;42.664;23.264;2023-06-14T12:48:38;94060.38;;;24.38;53.73
77041;BME280;65974;42.664;23.264;2023-06-14T12:51:03;94064.47;;;24.28;53.09
77041;BME280;65974;42.664;23.264;2023-06-14T12:53:29;94052.97;;;24.19;53.94
77041;BME280;65974;42.664;23.264;2023-06-14T12:55:54;94049.66;;;24.49;53.47
77041;BME280;65974;42.664;23.264;2023-06-14T12:58:20;94053.53;;;24.43;53.41
77041;BME280;65974;42.664;23.264;2023-06-14T13:00:46;94053.50;;;24.57;54.28
77041;BME280;65974;42.664;23.264;2023-06-14T13:03:12;94058.69;;;24.41;54.88